Time;durP1;ratioP1;P1;durP2;ratioP2;P2;SDS_P1;SDS_P2;PMS_P1;PMS_P2;Temp;Humidity;BMP_temperature;BMP_pressure;BME280_temperature;BME280_humidity;BME280_pressure;Samples;Min_cycle;Max_cycle;Signal;HPM_P1;HPM_P2
2021/04/06 00:01:53;;;;;;;31.73;19.98;;;;;;;;;;4993052;28;20176;-49
2021/04/06 00:04:22;;;;;;;38.05;23.88;;;;;;;;;;4993105;28;20041;-50
2021/04/06 00:06:54;;;;;;;31.38;20.08;;;;;;;;;;4993174;28;20101;-47
2021/04/06 00:09:23;;;;;;;34.13;21.20;;;;;;;;;;4995233;28;20038;-51
2021/04/06 00:11:51;;;;;;;32.60;21.83;;;;;;;;;;4996379;28;20026;-50
2021/04/06 00:14:18;;;;;;;38.90;23.70;;;;;;;;;;4996476;28;20160;-48
2021/04/06 00:16:48;;;;;;;39.67;24.55;;;;;;;;;;5009655;28;20046;-50
2021/04/06 00:19:18;;;;;;;30.98;19.35;;;;;;;;;;5016082;28;20033;-50
2021/04/06 00:21:47;;;;;;;42.15;26.52;;;;;;;;;;5015906;28;20018;-47
2021/04/06 00:24:14;;;;;;;31.08;19.80;;;;;;;;;;5015850;28;20030;-50
2021/04/06 00:26:43;;;;;;;31.83;19.42;;;;;;;;;;5015502;28;20115;-49
2021/04/06 00:29:09;;;;;;;30.75;19.00;;;;;;;;;;5015736;28;20137;-49
2021/04/06 00:31:36;;;;;;;43.72;25.25;;;;;;;;;;5015830;28;20022;-50
2021/04/06 00:34:03;;;;;;;36.55;21.75;;;;;;;;;;5015687;28;20034;-50
2021/04/06 00:36:29;;;;;;;47.90;28.40;;;;;;;;;;5015888;28;20022;-51
2021/04/06 00:38:55;;;;;;;35.17;21.75;;;;;;;;;;5015589;28;20028;-47
2021/04/06 00:41:22;;;;;;;47.55;27.08;;;;;;;;;;5016127;28;20414;-50
2021/04/06 00:43:49;;;;;;;33.25;21.65;;;;;;;;;;5015225;28;20084;-51
2021/04/06 00:46:28;;;;;;;38.10;23.55;;;;;;;;;;5015725;28;20114;-48
2021/04/06 00:48:56;;;;;;;32.50;21.10;;;;;;;;;;5015720;28;20108;-51
2021/04/06 00:51:23;;;;;;;30.70;18.10;;;;;;;;;;5015593;28;20038;-50
2021/04/06 00:53:55;;;;;;;42.88;24.50;;;;;;;;;;5015594;28;20029;-48
2021/04/06 00:56:28;;;;;;;34.35;21.00;;;;;;;;;;5015689;28;20437;-50
2021/04/06 00:58:58;;;;;;;37.50;21.63;;;;;;;;;;5015380;28;20113;-50
2021/04/06 01:01:25;;;;;;;39.70;22.98;;;;;;;;;;5015535;28;20061;-48
2021/04/06 01:03:53;;;;;;;34.85;20.63;;;;;;;;;;5015448;28;20029;-48
2021/04/06 01:06:19;;;;;;;42.83;27.23;;;;;;;;;;5015221;28;20054;-48
2021/04/06 01:08:46;;;;;;;40.97;25.08;;;;;;;;;;5015316;28;20030;-49
2021/04/06 01:11:12;;;;;;;31.35;19.73;;;;;;;;;;5015315;28;20104;-50
2021/04/06 01:13:38;;;;;;;35.00;21.90;;;;;;;;;;5015343;28;20385;-49
2021/04/06 01:16:04;;;;;;;32.78;20.08;;;;;;;;;;5014879;28;20029;-50
2021/04/06 01:18:33;;;;;;;26.67;16.33;;;;;;;;;;5015165;28;20026;-50
2021/04/06 01:20:59;;;;;;;33.58;20.05;;;;;;;;;;5014004;28;20049;-50
2021/04/06 01:23:26;;;;;;;48.20;25.60;;;;;;;;;;5015213;28;20030;-51
2021/04/06 01:25:57;;;;;;;39.53;20.63;;;;;;;;;;5015079;28;20091;-50
2021/04/06 01:28:31;;;;;;;37.38;21.23;;;;;;;;;;5015114;28;20018;-50
2021/04/06 01:30:58;;;;;;;30.23;18.02;;;;;;;;;;5014823;28;20030;-48
2021/04/06 01:33:25;;;;;;;27.50;17.73;;;;;;;;;;5014850;28;20022;-50
2021/04/06 01:35:53;;;;;;;26.33;15.27;;;;;;;;;;5015002;28;20033;-49
2021/04/06 01:38:22;;;;;;;25.27;14.27;;;;;;;;;;5014768;28;20080;-50
2021/04/06 01:40:48;;;;;;;25.92;15.38;;;;;;;;;;5014881;28;20104;-49
2021/04/06 01:43:16;;;;;;;16.95;11.88;;;;;;;;;;5014672;28;20049;-49
2021/04/06 01:45:47;;;;;;;26.27;14.55;;;;;;;;;;4996990;28;20044;-51
2021/04/06 01:48:14;;;;;;;24.67;15.77;;;;;;;;;;5014291;28;20030;-50
2021/04/06 01:50:41;;;;;;;19.98;13.30;;;;;;;;;;5014577;28;20026;-50
2021/04/06 01:53:07;;;;;;;21.45;14.02;;;;;;;;;;5014572;28;20386;-51
2021/04/06 01:55:36;;;;;;;24.02;14.20;;;;;;;;;;5014585;28;20018;-50
2021/04/06 01:58:02;;;;;;;22.75;14.55;;;;;;;;;;5014382;28;20041;-48
2021/04/06 02:01:06;;;;;;;25.42;12.73;;;;;;;;;;5014315;28;20517;-50
2021/04/06 02:03:15;;;;;;;21.23;12.90;;;;;;;;;;5013726;28;20030;-52
2021/04/06 02:05:43;;;;;;;21.35;13.10;;;;;;;;;;5014187;28;20394;-51
2021/04/06 02:08:13;;;;;;;22.40;13.15;;;;;;;;;;5014127;28;20022;-51
2021/04/06 02:10:39;;;;;;;21.48;14.25;;;;;;;;;;5014175;28;20482;-51
2021/04/06 02:13:13;;;;;;;22.08;12.77;;;;;;;;;;5014164;28;20037;-51
2021/04/06 02:15:54;;;;;;;21.15;13.00;;;;;;;;;;5014072;28;20108;-52
2021/04/06 02:18:21;;;;;;;16.45;12.00;;;;;;;;;;5014212;28;20402;-48
2021/04/06 02:20:51;;;;;;;21.42;12.90;;;;;;;;;;5014065;28;20064;-52
2021/04/06 02:23:19;;;;;;;21.65;12.57;;;;;;;;;;5014072;28;20041;-52
2021/04/06 02:25:51;;;;;;;17.38;11.75;;;;;;;;;;5013900;28;20121;-51
2021/04/06 02:28:18;;;;;;;22.15;13.38;;;;;;;;;;5014106;28;20022;-50
2021/04/06 02:30:57;;;;;;;22.20;13.95;;;;;;;;;;5013853;28;20429;-50
2021/04/06 02:33:27;;;;;;;20.25;13.48;;;;;;;;;;4996308;28;20022;-50
2021/04/06 02:35:54;;;;;;;21.35;13.23;;;;;;;;;;5013947;28;20026;-50
2021/04/06 02:38:21;;;;;;;25.15;13.27;;;;;;;;;;5013906;28;20055;-51
2021/04/06 02:40:47;;;;;;;21.58;13.27;;;;;;;;;;5013774;28;20026;-50
2021/04/06 02:43:13;;;;;;;26.67;12.60;;;;;;;;;;4995743;28;20089;-50
2021/04/06 02:45:46;;;;;;;19.75;11.90;;;;;;;;;;5013573;28;20034;-53
2021/04/06 02:48:14;;;;;;;20.60;12.50;;;;;;;;;;5013992;28;20034;-49
2021/04/06 02:50:41;;;;;;;21.42;12.48;;;;;;;;;;5013763;28;20026;-49
2021/04/06 02:53:08;;;;;;;18.40;12.10;;;;;;;;;;5013635;28;20387;-50
2021/04/06 02:55:35;;;;;;;21.00;12.25;;;;;;;;;;5013909;28;20386;-49
2021/04/06 02:58:01;;;;;;;19.77;12.00;;;;;;;;;;5013731;28;20105;-49
2021/04/06 03:00:27;;;;;;;17.90;11.80;;;;;;;;;;5013497;28;20058;-50
2021/04/06 03:03:15;;;;;;;19.88;12.70;;;;;;;;;;4996009;28;20026;-48
2021/04/06 03:05:41;;;;;;;19.80;12.27;;;;;;;;;;4997237;28;20414;-50
2021/04/06 03:08:08;;;;;;;19.58;12.45;;;;;;;;;;5013519;28;20025;-47
2021/04/06 03:10:34;;;;;;;22.80;11.98;;;;;;;;;;5013716;28;20030;-50
2021/04/06 03:13:08;;;;;;;22.85;13.57;;;;;;;;;;5013522;28;20026;-50
2021/04/06 03:15:34;;;;;;;23.67;12.93;;;;;;;;;;5013254;28;20029;-47
2021/04/06 03:18:06;;;;;;;18.60;13.35;;;;;;;;;;5013365;28;20046;-48
2021/04/06 03:20:34;;;;;;;20.23;12.48;;;;;;;;;;5013492;28;20105;-48
2021/04/06 03:23:02;;;;;;;19.52;12.27;;;;;;;;;;5013320;28;20022;-48
2021/04/06 03:25:31;;;;;;;24.73;13.13;;;;;;;;;;5013179;28;20486;-49
2021/04/06 03:27:57;;;;;;;22.00;13.38;;;;;;;;;;5013255;28;20474;-48
2021/04/06 03:30:32;;;;;;;24.73;13.88;;;;;;;;;;5013306;28;20048;-48
2021/04/06 03:33:18;;;;;;;20.50;12.02;;;;;;;;;;5013359;28;20018;-48
2021/04/06 03:35:47;;;;;;;18.25;11.95;;;;;;;;;;5013216;28;20117;-49
2021/04/06 03:38:14;;;;;;;25.67;13.40;;;;;;;;;;5013212;28;20068;-49
2021/04/06 03:40:40;;;;;;;25.42;14.68;;;;;;;;;;5013298;28;20482;-50
2021/04/06 03:43:24;;;;;;;20.83;13.48;;;;;;;;;;5013508;28;20113;-47
2021/04/06 03:45:58;;;;;;;20.80;12.40;;;;;;;;;;5016603;28;20041;-47
2021/04/06 03:48:25;;;;;;;24.08;12.70;;;;;;;;;;5016766;28;20030;-50
2021/04/06 03:50:52;;;;;;;24.02;13.25;;;;;;;;;;5016941;28;20050;-50
2021/04/06 03:53:23;;;;;;;20.73;13.80;;;;;;;;;;5016812;28;20026;-51
2021/04/06 03:56:01;;;;;;;22.35;13.68;;;;;;;;;;5016668;28;20022;-49
2021/04/06 03:58:30;;;;;;;21.20;13.70;;;;;;;;;;5016691;28;20482;-51
2021/04/06 04:00:56;;;;;;;19.40;12.77;;;;;;;;;;5016701;28;20062;-50
2021/04/06 04:03:22;;;;;;;19.77;13.20;;;;;;;;;;5016612;28;20084;-49
2021/04/06 04:05:51;;;;;;;20.48;13.18;;;;;;;;;;5016448;28;20486;-48
2021/04/06 04:08:19;;;;;;;22.75;13.65;;;;;;;;;;5016506;28;20033;-50
2021/04/06 04:10:45;;;;;;;21.35;13.23;;;;;;;;;;5016442;28;20041;-49
2021/04/06 04:13:12;;;;;;;24.27;14.45;;;;;;;;;;5016335;28;20451;-51
2021/04/06 04:15:38;;;;;;;27.05;15.02;;;;;;;;;;5016044;28;20030;-50
2021/04/06 04:18:04;;;;;;;26.88;15.95;;;;;;;;;;5016046;28;20053;-49
2021/04/06 04:20:30;;;;;;;26.23;14.25;;;;;;;;;;5016281;28;20032;-51
2021/04/06 04:22:56;;;;;;;24.90;14.30;;;;;;;;;;5016237;28;20021;-52
2021/04/06 04:25:22;;;;;;;21.77;13.10;;;;;;;;;;5016126;28;20038;-52
2021/04/06 04:27:48;;;;;;;23.10;13.48;;;;;;;;;;5016060;28;20025;-49
2021/04/06 04:30:15;;;;;;;31.92;11.70;;;;;;;;;;5016261;28;20033;-51
2021/04/06 04:32:41;;;;;;;28.27;10.05;;;;;;;;;;5016111;28;20593;-51
2021/04/06 04:35:08;;;;;;;45.05;5.93;;;;;;;;;;5016067;28;20152;-51
2021/04/06 04:37:34;;;;;;;28.63;4.50;;;;;;;;;;5015887;28;20026;-51
2021/04/06 04:40:00;;;;;;;31.58;4.85;;;;;;;;;;5015821;28;20029;-49
2021/04/06 04:42:26;;;;;;;25.65;3.60;;;;;;;;;;5015829;28;20029;-52
2021/04/06 04:44:53;;;;;;;18.73;2.67;;;;;;;;;;5015547;28;20037;-51
2021/04/06 04:47:19;;;;;;;19.85;3.08;;;;;;;;;;5015840;28;20371;-51
2021/04/06 04:49:45;;;;;;;18.75;2.90;;;;;;;;;;5015700;28;20022;-51
2021/04/06 04:52:11;;;;;;;16.05;2.50;;;;;;;;;;5015819;28;20029;-52
2021/04/06 04:54:37;;;;;;;12.93;2.72;;;;;;;;;;5015541;28;20034;-52
2021/04/06 04:57:03;;;;;;;13.13;2.42;;;;;;;;;;5015508;28;20026;-51
2021/04/06 04:59:29;;;;;;;14.65;4.35;;;;;;;;;;5015671;28;20036;-52
2021/04/06 05:01:55;;;;;;;12.30;2.72;;;;;;;;;;5015683;28;20390;-52
2021/04/06 05:04:21;;;;;;;13.27;3.60;;;;;;;;;;5015419;28;20093;-51
2021/04/06 05:06:48;;;;;;;23.38;6.43;;;;;;;;;;5015413;28;20493;-52
2021/04/06 05:09:14;;;;;;;20.67;8.55;;;;;;;;;;5015344;28;20033;-50
2021/04/06 05:11:42;;;;;;;38.00;12.57;;;;;;;;;;5015288;28;20080;-51
2021/04/06 05:14:08;;;;;;;93.55;42.30;;;;;;;;;;5015198;28;20398;-49
2021/04/06 05:16:36;;;;;;;54.92;20.00;;;;;;;;;;5014910;28;20046;-50
2021/04/06 05:19:02;;;;;;;39.42;15.02;;;;;;;;;;5015054;28;20053;-50
2021/04/06 05:21:28;;;;;;;25.08;8.60;;;;;;;;;;5015014;28;20022;-50
2021/04/06 05:23:57;;;;;;;43.63;18.20;;;;;;;;;;5015007;28;20022;-51
2021/04/06 05:26:23;;;;;;;11.60;4.22;;;;;;;;;;5014940;28;20514;-54
2021/04/06 05:28:49;;;;;;;38.60;15.23;;;;;;;;;;5014716;28;20037;-51
2021/04/06 05:31:15;;;;;;;34.42;13.98;;;;;;;;;;5014818;28;20025;-49
2021/04/06 05:33:41;;;;;;;36.17;15.25;;;;;;;;;;5014889;28;20445;-55
2021/04/06 05:36:07;;;;;;;44.80;16.58;;;;;;;;;;5014862;28;20026;-51
2021/04/06 05:38:33;;;;;;;39.05;12.75;;;;;;;;;;5014797;28;20026;-49
2021/04/06 05:40:59;;;;;;;20.65;8.00;;;;;;;;;;5014583;28;20080;-51
2021/04/06 05:43:26;;;;;;;27.85;12.50;;;;;;;;;;5014494;28;20382;-54
2021/04/06 05:45:52;;;;;;;70.20;33.88;;;;;;;;;;5014303;28;20044;-52
2021/04/06 05:48:19;;;;;;;19.55;9.65;;;;;;;;;;5014625;28;20044;-52
2021/04/06 05:50:49;;;;;;;24.83;9.23;;;;;;;;;;5014537;28;20063;-52
2021/04/06 05:53:15;;;;;;;38.72;8.88;;;;;;;;;;5014479;28;20037;-53
2021/04/06 05:55:41;;;;;;;31.02;11.48;;;;;;;;;;5014511;28;20026;-52
2021/04/06 05:58:07;;;;;;;13.40;6.05;;;;;;;;;;5014359;28;20048;-51
2021/04/06 06:00:34;;;;;;;10.65;5.22;;;;;;;;;;5014568;28;20105;-52
2021/04/06 06:03:01;;;;;;;15.52;5.25;;;;;;;;;;5014391;28;20032;-52
2021/04/06 06:05:27;;;;;;;13.70;4.82;;;;;;;;;;5014325;28;20030;-52
2021/04/06 06:07:54;;;;;;;11.60;5.70;;;;;;;;;;5013836;28;20026;-52
2021/04/06 06:10:31;;;;;;;11.10;3.97;;;;;;;;;;5014150;28;20058;-53
2021/04/06 06:13:16;;;;;;;10.35;3.75;;;;;;;;;;5014101;28;20026;-53
2021/04/06 06:15:43;;;;;;;7.95;3.20;;;;;;;;;;5014139;28;20505;-47
2021/04/06 06:18:09;;;;;;;9.00;3.15;;;;;;;;;;5013914;28;20058;-51
2021/04/06 06:20:35;;;;;;;13.73;3.78;;;;;;;;;;5014467;28;20061;-48
2021/04/06 06:23:18;;;;;;;5.53;2.38;;;;;;;;;;5013981;28;20088;-48
2021/04/06 06:26:04;;;;;;;7.70;2.38;;;;;;;;;;5014060;28;20505;-51
2021/04/06 06:28:30;;;;;;;7.88;2.97;;;;;;;;;;5013873;28;20024;-52
2021/04/06 06:30:57;;;;;;;4.03;2.17;;;;;;;;;;5013870;28;20057;-50
2021/04/06 06:33:26;;;;;;;6.50;2.40;;;;;;;;;;4996281;28;20033;-53
2021/04/06 06:35:55;;;;;;;6.45;2.58;;;;;;;;;;5013649;28;20026;-54
2021/04/06 06:38:21;;;;;;;5.35;2.20;;;;;;;;;;5013935;28;20022;-52
2021/04/06 06:40:48;;;;;;;7.00;2.92;;;;;;;;;;5013757;28;20141;-52
2021/04/06 06:43:14;;;;;;;5.50;2.15;;;;;;;;;;5008386;28;20034;-53
2021/04/06 06:45:41;;;;;;;13.02;4.90;;;;;;;;;;5013444;28;20038;-53
2021/04/06 06:48:08;;;;;;;29.90;11.85;;;;;;;;;;5013488;28;20035;-53
2021/04/06 06:50:47;;;;;;;29.67;14.93;;;;;;;;;;5013624;28;20026;-52
2021/04/06 06:53:13;;;;;;;33.53;14.23;;;;;;;;;;5013841;28;20026;-52
2021/04/06 06:55:42;;;;;;;29.77;13.02;;;;;;;;;;5013569;28;20029;-48
2021/04/06 06:58:08;;;;;;;13.40;4.57;;;;;;;;;;5013472;28;20152;-53
2021/04/06 07:00:34;;;;;;;21.90;9.02;;;;;;;;;;5013527;28;20109;-54
2021/04/06 07:03:00;;;;;;;86.47;43.22;;;;;;;;;;5013524;28;20022;-54
2021/04/06 07:05:30;;;;;;;46.40;21.35;;;;;;;;;;5013270;28;20116;-54
2021/04/06 07:07:56;;;;;;;22.23;10.35;;;;;;;;;;5013442;28;20108;-55
2021/04/06 07:10:23;;;;;;;13.85;7.28;;;;;;;;;;5013525;28;20101;-54
2021/04/06 07:12:55;;;;;;;17.30;7.20;;;;;;;;;;5013410;28;20482;-53
2021/04/06 07:15:22;;;;;;;17.52;7.68;;;;;;;;;;5013251;28;20041;-53
2021/04/06 07:17:48;;;;;;;33.00;13.77;;;;;;;;;;5013115;28;20056;-52
2021/04/06 07:20:18;;;;;;;42.67;20.13;;;;;;;;;;5017356;28;20034;-53
2021/04/06 07:22:46;;;;;;;37.08;16.63;;;;;;;;;;5017495;28;20029;-53
2021/04/06 07:25:13;;;;;;;20.23;9.30;;;;;;;;;;5017146;28;20037;-52
2021/04/06 07:27:41;;;;;;;28.27;13.00;;;;;;;;;;5017114;28;20076;-50
2021/04/06 07:30:07;;;;;;;19.15;9.25;;;;;;;;;;5017411;28;20084;-48
2021/04/06 07:32:36;;;;;;;22.48;12.05;;;;;;;;;;5017163;28;20018;-50
2021/04/06 07:35:02;;;;;;;25.48;9.88;;;;;;;;;;5017220;28;20029;-48
2021/04/06 07:37:31;;;;;;;35.88;15.23;;;;;;;;;;5017308;28;20108;-48
2021/04/06 07:40:02;;;;;;;41.22;15.27;;;;;;;;;;5016981;28;20036;-49
2021/04/06 07:42:28;;;;;;;26.88;10.35;;;;;;;;;;5017011;28;20032;-47
2021/04/06 07:44:54;;;;;;;27.02;11.18;;;;;;;;;;5016832;28;20026;-48
2021/04/06 07:47:50;;;;;;;17.30;9.13;;;;;;;;;;5016806;28;20085;-52
2021/04/06 07:50:35;;;;;;;25.35;8.98;;;;;;;;;;4937081;29;20433;-52
2021/04/06 07:53:19;;;;;;;18.88;8.35;;;;;;;;;;4937202;29;20031;-54
2021/04/06 07:55:45;;;;;;;16.73;6.95;;;;;;;;;;4937186;29;20034;-53
2021/04/06 07:58:11;;;;;;;11.43;5.97;;;;;;;;;;4937066;29;20032;-50
2021/04/06 08:00:51;;;;;;;14.35;6.07;;;;;;;;;;4936957;29;20536;-49
2021/04/06 08:03:57;;;;;;;13.15;6.03;;;;;;;;;;4936980;29;20043;-48
2021/04/06 08:06:27;;;;;;;12.10;5.60;;;;;;;;;;4898840;29;20675;-52
2021/04/06 08:08:54;;;;;;;27.58;12.90;;;;;;;;;;4898892;29;20154;-53
2021/04/06 08:11:21;;;;;;;17.10;9.05;;;;;;;;;;4898817;29;20489;-54
2021/04/06 08:13:48;;;;;;;72.72;33.55;;;;;;;;;;4893801;29;20065;-52
2021/04/06 08:16:15;;;;;;;34.03;15.95;;;;;;;;;;4889577;29;20053;-55
2021/04/06 08:18:51;;;;;;;10.95;5.15;;;;;;;;;;4888558;29;20108;-54
2021/04/06 08:21:20;;;;;;;13.18;3.92;;;;;;;;;;4888039;29;20056;-53
2021/04/06 08:23:47;;;;;;;14.82;4.93;;;;;;;;;;4888356;29;20056;-53
2021/04/06 08:26:29;;;;;;;12.93;3.20;;;;;;;;;;4915820;29;20051;-53
2021/04/06 08:28:55;;;;;;;12.60;5.40;;;;;;;;;;4955219;28;20038;-52
2021/04/06 08:31:24;;;;;;;17.98;7.20;;;;;;;;;;4955529;29;20054;-54
2021/04/06 08:33:52;;;;;;;21.02;6.90;;;;;;;;;;4955252;29;20115;-51
2021/04/06 08:36:26;;;;;;;19.42;8.10;;;;;;;;;;4961940;28;20038;-52
2021/04/06 08:38:53;;;;;;;8.15;4.05;;;;;;;;;;4996170;28;20023;-54
2021/04/06 08:41:25;;;;;;;11.98;5.28;;;;;;;;;;4995996;28;20030;-53
2021/04/06 08:43:51;;;;;;;17.90;7.38;;;;;;;;;;4995981;28;20052;-52
2021/04/06 08:46:24;;;;;;;13.00;4.45;;;;;;;;;;4995672;28;20046;-51
2021/04/06 08:48:52;;;;;;;9.25;4.47;;;;;;;;;;4996005;28;20029;-53
2021/04/06 08:51:31;;;;;;;10.73;4.72;;;;;;;;;;4996056;28;20041;-50
2021/04/06 08:54:01;;;;;;;8.75;4.10;;;;;;;;;;4996050;28;20046;-51
2021/04/06 08:56:33;;;;;;;10.38;3.63;;;;;;;;;;5010283;28;20022;-50
2021/04/06 08:58:59;;;;;;;;;;;;;;;;;;5015153;28;20470;-49
2021/04/06 09:01:25;;;;;;;11.00;5.07;;;;;;;;;;5015273;28;19905;-53
2021/04/06 09:03:51;;;;;;;12.23;3.97;;;;;;;;;;5015765;28;20060;-52
2021/04/06 09:06:17;;;;;;;27.40;7.53;;;;;;;;;;5015246;28;20437;-53
2021/04/06 09:08:47;;;;;;;15.40;4.32;;;;;;;;;;5015425;28;20030;-53
2021/04/06 09:11:14;;;;;;;11.55;5.18;;;;;;;;;;5015252;28;20030;-51
2021/04/06 09:13:40;;;;;;;17.98;6.93;;;;;;;;;;5015402;28;20153;-51
2021/04/06 09:16:09;;;;;;;18.48;6.07;;;;;;;;;;5015177;28;20054;-52
2021/04/06 09:18:38;;;;;;;26.25;8.38;;;;;;;;;;5015208;28;20026;-51
2021/04/06 09:21:06;;;;;;;16.58;6.53;;;;;;;;;;5015102;28;20478;-54
2021/04/06 09:23:34;;;;;;;21.90;10.93;;;;;;;;;;5014820;28;20026;-53
2021/04/06 09:26:00;;;;;;;30.90;11.20;;;;;;;;;;5014639;28;20026;-53
2021/04/06 09:28:26;;;;;;;20.75;8.27;;;;;;;;;;5014864;28;20054;-54
2021/04/06 09:30:52;;;;;;;22.95;8.90;;;;;;;;;;5014559;28;20032;-52
2021/04/06 09:33:20;;;;;;;35.35;14.38;;;;;;;;;;5014660;28;20030;-52
2021/04/06 09:35:50;;;;;;;25.63;12.18;;;;;;;;;;5014774;28;20486;-50
2021/04/06 09:38:23;;;;;;;25.63;10.50;;;;;;;;;;5014664;28;20036;-51
2021/04/06 09:40:50;;;;;;;28.00;13.55;;;;;;;;;;5013558;28;20034;-47
2021/04/06 09:43:16;;;;;;;34.10;16.15;;;;;;;;;;5014980;28;20026;-49
2021/04/06 09:45:42;;;;;;;50.83;24.08;;;;;;;;;;5014694;28;20474;-48
2021/04/06 09:48:12;;;;;;;25.05;12.50;;;;;;;;;;5014516;28;20060;-49
2021/04/06 09:50:38;;;;;;;27.27;12.00;;;;;;;;;;5014434;28;20482;-48
2021/04/06 09:53:15;;;;;;;25.73;12.45;;;;;;;;;;5014315;28;20026;-48
2021/04/06 09:55:41;;;;;;;17.08;9.30;;;;;;;;;;5014475;28;20624;-49
2021/04/06 09:58:07;;;;;;;40.13;16.83;;;;;;;;;;5014212;28;20029;-49
2021/04/06 10:00:35;;;;;;;35.22;18.05;;;;;;;;;;5013874;28;20057;-48
2021/04/06 10:03:07;;;;;;;39.65;20.95;;;;;;;;;;5013896;28;20032;-48
2021/04/06 10:05:33;;;;;;;;;;;;;;;;;;5014533;28;20033;-45
2021/04/06 10:07:59;;;;;;;24.25;12.00;;;;;;;;;;5014040;28;19916;-49
2021/04/06 10:10:27;;;;;;;31.15;16.55;;;;;;;;;;5014306;28;20401;-47
2021/04/06 10:12:54;;;;;;;39.10;17.75;;;;;;;;;;5013966;28;20022;-48
2021/04/06 10:15:24;;;;;;;21.15;9.77;;;;;;;;;;5013948;28;20034;-47
2021/04/06 10:17:50;;;;;;;32.80;14.70;;;;;;;;;;5013733;28;20053;-49
2021/04/06 10:20:16;;;;;;;24.85;11.80;;;;;;;;;;5136411;23;20387;-57
2021/04/06 10:22:49;;;;;;;75.80;33.97;;;;;;;;;;4971352;28;20050;-56
2021/04/06 10:25:22;;;;;;;22.05;11.05;;;;;;;;;;4972004;28;20446;-55
2021/04/06 10:27:48;;;;;;;19.90;8.50;;;;;;;;;;4974426;28;20529;-54
2021/04/06 10:30:16;;;;;;;33.03;13.70;;;;;;;;;;4974427;28;20084;-55
2021/04/06 10:32:47;;;;;;;48.78;23.92;;;;;;;;;;4974391;28;20114;-57
2021/04/06 10:35:27;;;;;;;19.95;9.93;;;;;;;;;;4974689;28;20533;-54
2021/04/06 10:37:53;;;;;;;34.35;16.38;;;;;;;;;;4957353;28;20510;-54
2021/04/06 10:40:27;;;;;;;21.65;9.60;;;;;;;;;;4974725;28;20109;-53
2021/04/06 10:42:55;;;;;;;35.55;18.27;;;;;;;;;;4974642;28;20023;-54
2021/04/06 10:45:22;;;;;;;24.27;11.30;;;;;;;;;;4974640;28;20027;-51
2021/04/06 10:48:01;;;;;;;42.20;20.08;;;;;;;;;;4974282;28;20027;-52
2021/04/06 10:50:29;;;;;;;31.98;11.10;;;;;;;;;;4974439;28;20158;-54
2021/04/06 10:52:55;;;;;;;23.38;9.23;;;;;;;;;;4974294;28;20393;-55
2021/04/06 10:55:31;;;;;;;19.38;7.22;;;;;;;;;;4974518;28;20030;-53
2021/04/06 10:57:57;;;;;;;25.50;11.88;;;;;;;;;;4974465;28;20541;-53
2021/04/06 11:00:25;;;;;;;25.23;13.45;;;;;;;;;;4974499;28;20027;-54
2021/04/06 11:03:10;;;;;;;31.45;15.15;;;;;;;;;;4974526;28;20114;-53
2021/04/06 11:05:38;;;;;;;29.27;11.68;;;;;;;;;;4974299;28;20038;-58
2021/04/06 11:08:26;;;;;;;33.10;14.98;;;;;;;;;;4974273;28;20110;-56
2021/04/06 11:10:54;;;;;;;37.90;13.48;;;;;;;;;;4974296;28;20027;-58
2021/04/06 11:13:20;;;;;;;29.02;11.35;;;;;;;;;;4974269;28;20022;-59
2021/04/06 11:15:47;;;;;;;46.67;18.73;;;;;;;;;;4974259;28;20037;-59
2021/04/06 11:18:13;;;;;;;51.42;19.17;;;;;;;;;;4974406;28;20030;-61
2021/04/06 11:20:40;;;;;;;22.10;10.88;;;;;;;;;;4974024;28;20047;-60
2021/04/06 11:23:06;;;;;;;19.67;6.63;;;;;;;;;;4974360;28;20027;-59
2021/04/06 11:25:33;;;;;;;9.32;4.78;;;;;;;;;;4974269;28;20031;-59
2021/04/06 11:27:59;;;;;;;22.05;11.45;;;;;;;;;;4974278;28;20102;-60
2021/04/06 11:30:26;;;;;;;22.05;6.63;;;;;;;;;;4974184;28;20027;-59
2021/04/06 11:32:52;;;;;;;14.15;5.47;;;;;;;;;;4974216;28;20419;-60
2021/04/06 11:35:19;;;;;;;22.00;6.72;;;;;;;;;;4974226;28;20023;-60
2021/04/06 11:37:45;;;;;;;35.50;16.48;;;;;;;;;;4974215;28;20034;-60
2021/04/06 11:40:11;;;;;;;18.42;8.45;;;;;;;;;;4974338;28;20019;-59
2021/04/06 11:42:37;;;;;;;13.38;6.90;;;;;;;;;;4974126;28;20042;-61
2021/04/06 11:45:03;;;;;;;8.85;3.28;;;;;;;;;;4973350;28;20371;-58
2021/04/06 11:47:31;;;;;;;13.05;5.72;;;;;;;;;;4956680;28;20042;-57
2021/04/06 11:49:57;;;;;;;14.75;6.22;;;;;;;;;;4974008;28;20019;-55
2021/04/06 11:52:23;;;;;;;17.40;5.90;;;;;;;;;;4973998;28;20499;-56
2021/04/06 11:54:49;;;;;;;26.02;10.20;;;;;;;;;;4974009;28;20030;-57
2021/04/06 11:57:15;;;;;;;27.27;12.93;;;;;;;;;;4973922;28;20110;-58
2021/04/06 11:59:41;;;;;;;17.85;7.78;;;;;;;;;;4974200;28;20026;-56
2021/04/06 12:02:08;;;;;;;22.25;9.20;;;;;;;;;;4974037;28;20054;-56
2021/04/06 12:04:34;;;;;;;34.08;12.95;;;;;;;;;;4975100;28;20034;-55
2021/04/06 12:07:00;;;;;;;32.78;15.50;;;;;;;;;;4977039;28;20035;-54
2021/04/06 12:09:26;;;;;;;31.08;12.68;;;;;;;;;;4976814;28;20048;-55
2021/04/06 12:11:52;;;;;;;24.23;9.68;;;;;;;;;;4976873;28;20018;-56
2021/04/06 12:14:18;;;;;;;41.58;19.20;;;;;;;;;;4976563;28;20023;-57
2021/04/06 12:16:44;;;;;;;52.40;26.95;;;;;;;;;;4976951;28;20023;-55
2021/04/06 12:19:11;;;;;;;31.50;14.25;;;;;;;;;;4976398;28;20027;-55
2021/04/06 12:21:41;;;;;;;33.80;16.25;;;;;;;;;;4976909;28;20502;-55
2021/04/06 12:24:07;;;;;;;26.45;12.27;;;;;;;;;;4977108;28;20034;-56
2021/04/06 12:26:34;;;;;;;30.38;15.82;;;;;;;;;;4976849;28;20031;-53
2021/04/06 12:29:02;;;;;;;40.83;17.73;;;;;;;;;;4977051;28;20026;-56
2021/04/06 12:31:28;;;;;;;26.15;14.98;;;;;;;;;;4977197;28;20042;-54
2021/04/06 12:33:56;;;;;;;37.58;19.25;;;;;;;;;;4976905;28;20426;-54
2021/04/06 12:36:23;;;;;;;42.47;19.92;;;;;;;;;;4976898;28;20058;-52
2021/04/06 12:38:49;;;;;;;37.15;18.42;;;;;;;;;;4976770;28;20081;-56
2021/04/06 12:41:15;;;;;;;25.33;12.57;;;;;;;;;;4976671;28;20530;-58
2021/04/06 12:43:41;;;;;;;35.78;18.40;;;;;;;;;;4976696;28;20110;-57
2021/04/06 12:46:07;;;;;;;49.05;21.23;;;;;;;;;;4976223;28;20027;-58
2021/04/06 12:48:33;;;;;;;35.58;18.38;;;;;;;;;;4976600;28;20069;-54
2021/04/06 12:50:59;;;;;;;34.40;15.50;;;;;;;;;;4976336;28;20046;-56
2021/04/06 12:53:25;;;;;;;25.45;11.57;;;;;;;;;;4976540;28;20077;-54
2021/04/06 12:55:52;;;;;;;24.38;10.02;;;;;;;;;;4976584;28;20094;-54
2021/04/06 12:58:18;;;;;;;29.83;15.82;;;;;;;;;;4976411;28;20118;-57
2021/04/06 13:00:44;;;;;;;22.45;8.68;;;;;;;;;;4976596;28;20151;-56
2021/04/06 13:03:10;;;;;;;23.20;10.57;;;;;;;;;;4976332;28;20041;-56
2021/04/06 13:05:36;;;;;;;25.10;13.10;;;;;;;;;;4976536;28;20042;-56
2021/04/06 13:08:02;;;;;;;20.05;7.85;;;;;;;;;;4976436;28;20029;-54
2021/04/06 13:10:31;;;;;;;24.30;9.48;;;;;;;;;;4976319;28;20027;-54
2021/04/06 13:12:58;;;;;;;12.45;6.80;;;;;;;;;;4976147;28;20031;-53
2021/04/06 13:15:24;;;;;;;30.70;14.15;;;;;;;;;;4975481;28;20463;-55
2021/04/06 13:17:50;;;;;;;24.23;9.82;;;;;;;;;;4975539;28;20022;-55
2021/04/06 13:20:17;;;;;;;31.13;12.70;;;;;;;;;;4975917;28;20508;-55
2021/04/06 13:22:43;;;;;;;25.33;11.90;;;;;;;;;;4976153;28;20070;-57
2021/04/06 13:25:11;;;;;;;30.65;12.68;;;;;;;;;;4975960;28;20050;-56
2021/04/06 13:27:37;;;;;;;37.95;14.45;;;;;;;;;;4975880;28;20035;-55
2021/04/06 13:30:04;;;;;;;31.33;16.00;;;;;;;;;;4976082;28;20023;-55
2021/04/06 13:32:30;;;;;;;25.65;10.82;;;;;;;;;;4976275;28;20023;-56
2021/04/06 13:34:56;;;;;;;15.88;6.88;;;;;;;;;;4976055;28;20100;-56
2021/04/06 13:37:23;;;;;;;10.75;5.30;;;;;;;;;;4975914;28;20038;-54
2021/04/06 13:39:49;;;;;;;14.50;6.68;;;;;;;;;;4975683;28;20113;-56
2021/04/06 13:42:15;;;;;;;27.42;10.27;;;;;;;;;;4975597;28;20475;-57
2021/04/06 13:44:41;;;;;;;20.60;8.20;;;;;;;;;;4975485;28;20037;-57
2021/04/06 13:47:07;;;;;;;11.02;6.57;;;;;;;;;;4975543;28;20089;-54
2021/04/06 13:49:33;;;;;;;17.98;8.07;;;;;;;;;;4975492;28;20026;-58
2021/04/06 13:51:59;;;;;;;9.80;4.20;;;;;;;;;;4975383;28;20031;-57
2021/04/06 13:54:26;;;;;;;22.55;5.75;;;;;;;;;;4975572;28;20027;-58
2021/04/06 13:56:52;;;;;;;16.92;8.18;;;;;;;;;;4975377;28;20034;-58
2021/04/06 13:59:18;;;;;;;22.27;8.73;;;;;;;;;;4975429;28;20082;-58
2021/04/06 14:01:44;;;;;;;14.25;4.80;;;;;;;;;;4958026;28;20027;-58
2021/04/06 14:04:10;;;;;;;21.63;7.55;;;;;;;;;;4975150;28;20023;-59
2021/04/06 14:06:36;;;;;;;14.95;7.50;;;;;;;;;;4974891;28;20035;-58
2021/04/06 14:09:03;;;;;;;31.08;16.63;;;;;;;;;;4975098;28;20494;-58
2021/04/06 14:11:29;;;;;;;42.05;18.50;;;;;;;;;;4975308;28;20235;-58
2021/04/06 14:13:55;;;;;;;25.75;12.13;;;;;;;;;;4975096;28;20530;-56
2021/04/06 14:16:21;;;;;;;62.20;33.28;;;;;;;;;;4975121;28;20109;-58
2021/04/06 14:18:47;;;;;;;19.60;8.43;;;;;;;;;;4974978;28;20049;-54
2021/04/06 14:21:13;;;;;;;35.83;16.50;;;;;;;;;;4974872;28;20059;-57
2021/04/06 14:23:40;;;;;;;23.80;9.63;;;;;;;;;;4974841;28;20023;-58
2021/04/06 14:26:07;;;;;;;23.13;8.70;;;;;;;;;;4973210;28;20047;-55
2021/04/06 14:28:35;;;;;;;22.83;11.27;;;;;;;;;;4973157;28;20019;-53
2021/04/06 14:31:01;;;;;;;20.35;10.70;;;;;;;;;;4973545;28;20491;-54